Adams, Oklahoma
Current Conditions -  °F | °C
As of 2:55 AM on Saturday 22 Nov 2014 (Local Time) from KLBL Reporting Station
Clear Clear  
Wind Chill: 29°   Ceiling: Unl
Heat Index: 34°   Visibility: 10mi
Dew Point: 28°   Wind: 6mph
Humidity: 81%   Direction: 210°SSW
Pressure: 29.99"   Gusts: NA
Location:  36.76°N, 101.08°W
Report Text: KLBL 220855Z AUTO 21005KT 10SM CLR 01/M02 A2999 RMK AO1 57003
Loading
Personal Weather Stations






























Interactive Weather Map New forecast layout! Learn more

10-Day Weather Forecast

Advertisements
Track Severe Weather on mobile